sensor_id;sensor_type;location;lat;lon;timestamp;P1;durP1;ratioP1;P2;durP2;ratioP2
16179;SDS011;8196;49.428;10.906;2023-02-01T00:01:58;6.13;;;5.37;;
16179;SDS011;8196;49.428;10.906;2023-02-01T00:04:25;6.20;;;5.05;;
16179;SDS011;8196;49.428;10.906;2023-02-01T00:06:53;6.37;;;5.00;;
16179;SDS011;8196;49.428;10.906;2023-02-01T00:09:20;5.73;;;5.17;;
16179;SDS011;8196;49.428;10.906;2023-02-01T00:11:47;6.40;;;4.43;;
16179;SDS011;8196;49.428;10.906;2023-02-01T00:14:14;5.43;;;4.65;;
16179;SDS011;8196;49.428;10.906;2023-02-01T00:16:41;6.07;;;5.47;;
16179;SDS011;8196;49.428;10.906;2023-02-01T00:19:11;5.63;;;5.10;;
16179;SDS011;8196;49.428;10.906;2023-02-01T00:21:39;5.97;;;5.25;;
16179;SDS011;8196;49.428;10.906;2023-02-01T00:24:06;6.43;;;4.82;;
16179;SDS011;8196;49.428;10.906;2023-02-01T00:29:04;5.97;;;5.22;;
16179;SDS011;8196;49.428;10.906;2023-02-01T00:31:31;5.38;;;4.88;;
16179;SDS011;8196;49.428;10.906;2023-02-01T00:33:59;6.00;;;5.40;;
16179;SDS011;8196;49.428;10.906;2023-02-01T00:36:26;6.10;;;5.45;;
16179;SDS011;8196;49.428;10.906;2023-02-01T00:38:54;6.03;;;5.13;;
16179;SDS011;8196;49.428;10.906;2023-02-01T00:41:21;5.53;;;5.03;;
16179;SDS011;8196;49.428;10.906;2023-02-01T00:43:49;6.20;;;5.28;;
16179;SDS011;8196;49.428;10.906;2023-02-01T00:46:17;6.75;;;5.30;;
16179;SDS011;8196;49.428;10.906;2023-02-01T00:48:45;6.75;;;5.50;;
16179;SDS011;8196;49.428;10.906;2023-02-01T00:51:13;5.85;;;5.25;;
16179;SDS011;8196;49.428;10.906;2023-02-01T00:53:41;6.67;;;4.83;;
16179;SDS011;8196;49.428;10.906;2023-02-01T00:56:08;6.78;;;5.10;;
16179;SDS011;8196;49.428;10.906;2023-02-01T00:58:35;5.53;;;5.03;;
16179;SDS011;8196;49.428;10.906;2023-02-01T01:01:05;5.82;;;5.22;;
16179;SDS011;8196;49.428;10.906;2023-02-01T01:03:33;6.50;;;5.63;;
16179;SDS011;8196;49.428;10.906;2023-02-01T01:06:02;5.05;;;4.50;;
16179;SDS011;8196;49.428;10.906;2023-02-01T01:08:30;5.88;;;5.25;;
16179;SDS011;8196;49.428;10.906;2023-02-01T01:10:57;5.70;;;5.10;;
16179;SDS011;8196;49.428;10.906;2023-02-01T01:13:24;6.75;;;5.70;;
16179;SDS011;8196;49.428;10.906;2023-02-01T01:15:51;5.60;;;4.88;;
16179;SDS011;8196;49.428;10.906;2023-02-01T01:18:18;5.75;;;4.60;;
16179;SDS011;8196;49.428;10.906;2023-02-01T01:20:47;6.03;;;5.22;;
16179;SDS011;8196;49.428;10.906;2023-02-01T01:23:14;5.97;;;5.20;;
16179;SDS011;8196;49.428;10.906;2023-02-01T01:25:41;6.93;;;5.88;;
16179;SDS011;8196;49.428;10.906;2023-02-01T01:28:08;5.93;;;4.90;;
16179;SDS011;8196;49.428;10.906;2023-02-01T01:30:35;6.83;;;5.07;;
16179;SDS011;8196;49.428;10.906;2023-02-01T01:33:02;6.33;;;5.43;;
16179;SDS011;8196;49.428;10.906;2023-02-01T01:35:32;6.30;;;5.38;;
16179;SDS011;8196;49.428;10.906;2023-02-01T01:37:59;6.15;;;5.55;;
16179;SDS011;8196;49.428;10.906;2023-02-01T01:40:27;5.90;;;4.80;;
16179;SDS011;8196;49.428;10.906;2023-02-01T01:42:54;5.53;;;4.77;;
16179;SDS011;8196;49.428;10.906;2023-02-01T01:47:53;5.68;;;5.18;;
16179;SDS011;8196;49.428;10.906;2023-02-01T01:50:23;5.03;;;4.53;;
16179;SDS011;8196;49.428;10.906;2023-02-01T01:52:51;5.60;;;5.10;;
16179;SDS011;8196;49.428;10.906;2023-02-01T01:55:19;5.40;;;4.90;;
16179;SDS011;8196;49.428;10.906;2023-02-01T01:57:48;5.40;;;4.90;;
16179;SDS011;8196;49.428;10.906;2023-02-01T02:00:17;5.90;;;4.87;;
16179;SDS011;8196;49.428;10.906;2023-02-01T02:02:47;6.13;;;4.22;;
16179;SDS011;8196;49.428;10.906;2023-02-01T02:05:14;5.03;;;4.53;;
16179;SDS011;8196;49.428;10.906;2023-02-01T02:07:43;6.35;;;4.70;;
16179;SDS011;8196;49.428;10.906;2023-02-01T02:10:12;4.77;;;4.27;;
16179;SDS011;8196;49.428;10.906;2023-02-01T02:12:41;5.25;;;4.55;;
16179;SDS011;8196;49.428;10.906;2023-02-01T02:15:09;4.97;;;4.57;;
16179;SDS011;8196;49.428;10.906;2023-02-01T02:17:42;5.40;;;4.90;;
16179;SDS011;8196;49.428;10.906;2023-02-01T02:25:29;5.80;;;5.15;;
16179;SDS011;8196;49.428;10.906;2023-02-01T02:28:05;6.50;;;5.50;;
16179;SDS011;8196;49.428;10.906;2023-02-01T02:38:44;6.35;;;5.70;;
16179;SDS011;8196;49.428;10.906;2023-02-01T02:41:25;6.45;;;5.70;;
16179;SDS011;8196;49.428;10.906;2023-02-01T02:44:20;6.68;;;5.97;;
16179;SDS011;8196;49.428;10.906;2023-02-01T02:47:11;7.50;;;6.70;;
16179;SDS011;8196;49.428;10.906;2023-02-01T02:49:58;6.57;;;5.97;;
16179;SDS011;8196;49.428;10.906;2023-02-01T02:52:50;6.60;;;5.90;;
16179;SDS011;8196;49.428;10.906;2023-02-01T02:55:37;6.90;;;6.20;;
16179;SDS011;8196;49.428;10.906;2023-02-01T02:58:06;5.85;;;5.25;;
16179;SDS011;8196;49.428;10.906;2023-02-01T03:00:54;5.57;;;5.03;;
16179;SDS011;8196;49.428;10.906;2023-02-01T03:03:42;6.00;;;5.43;;
16179;SDS011;8196;49.428;10.906;2023-02-01T03:06:30;5.87;;;5.37;;
16179;SDS011;8196;49.428;10.906;2023-02-01T03:08:59;6.97;;;5.85;;
16179;SDS011;8196;49.428;10.906;2023-02-01T03:11:28;6.57;;;5.93;;
16179;SDS011;8196;49.428;10.906;2023-02-01T03:14:16;6.97;;;6.28;;
16179;SDS011;8196;49.428;10.906;2023-02-01T03:16:47;7.33;;;6.53;;
16179;SDS011;8196;49.428;10.906;2023-02-01T03:19:19;6.70;;;6.00;;
16179;SDS011;8196;49.428;10.906;2023-02-01T03:21:49;7.50;;;6.70;;
16179;SDS011;8196;49.428;10.906;2023-02-01T03:24:18;7.20;;;5.55;;
16179;SDS011;8196;49.428;10.906;2023-02-01T03:26:48;6.68;;;5.97;;
16179;SDS011;8196;49.428;10.906;2023-02-01T03:29:18;7.32;;;6.63;;
16179;SDS011;8196;49.428;10.906;2023-02-01T03:31:48;7.45;;;6.72;;
16179;SDS011;8196;49.428;10.906;2023-02-01T03:34:15;8.13;;;6.72;;
16179;SDS011;8196;49.428;10.906;2023-02-01T03:36:46;7.47;;;6.28;;
16179;SDS011;8196;49.428;10.906;2023-02-01T03:42:03;6.80;;;6.15;;
16179;SDS011;8196;49.428;10.906;2023-02-01T03:44:32;7.15;;;6.25;;
16179;SDS011;8196;49.428;10.906;2023-02-01T03:47:03;7.30;;;6.50;;
16179;SDS011;8196;49.428;10.906;2023-02-01T03:49:34;7.38;;;6.68;;
16179;SDS011;8196;49.428;10.906;2023-02-01T03:52:02;6.70;;;5.70;;
16179;SDS011;8196;49.428;10.906;2023-02-01T03:54:30;6.10;;;5.50;;
16179;SDS011;8196;49.428;10.906;2023-02-01T03:56:59;7.05;;;6.35;;
16179;SDS011;8196;49.428;10.906;2023-02-01T03:59:28;6.53;;;5.93;;
16179;SDS011;8196;49.428;10.906;2023-02-01T04:01:55;7.93;;;5.67;;
16179;SDS011;8196;49.428;10.906;2023-02-01T04:04:22;7.13;;;5.43;;
16179;SDS011;8196;49.428;10.906;2023-02-01T04:06:49;7.40;;;6.70;;
16179;SDS011;8196;49.428;10.906;2023-02-01T04:09:17;7.03;;;6.32;;
16179;SDS011;8196;49.428;10.906;2023-02-01T04:11:44;6.85;;;6.05;;
16179;SDS011;8196;49.428;10.906;2023-02-01T04:14:12;8.45;;;6.40;;
16179;SDS011;8196;49.428;10.906;2023-02-01T04:16:39;7.22;;;6.40;;
16179;SDS011;8196;49.428;10.906;2023-02-01T04:19:06;7.15;;;6.45;;
16179;SDS011;8196;49.428;10.906;2023-02-01T04:21:33;6.57;;;5.78;;
16179;SDS011;8196;49.428;10.906;2023-02-01T04:24:00;6.15;;;5.55;;
16179;SDS011;8196;49.428;10.906;2023-02-01T04:26:27;6.82;;;5.93;;
16179;SDS011;8196;49.428;10.906;2023-02-01T04:28:55;6.82;;;6.05;;
16179;SDS011;8196;49.428;10.906;2023-02-01T04:31:21;7.30;;;6.30;;
16179;SDS011;8196;49.428;10.906;2023-02-01T04:33:52;6.60;;;5.63;;
16179;SDS011;8196;49.428;10.906;2023-02-01T04:36:20;6.53;;;5.60;;
16179;SDS011;8196;49.428;10.906;2023-02-01T04:38:50;6.32;;;5.72;;
16179;SDS011;8196;49.428;10.906;2023-02-01T04:41:17;6.43;;;5.83;;
16179;SDS011;8196;49.428;10.906;2023-02-01T04:43:46;5.80;;;5.20;;
16179;SDS011;8196;49.428;10.906;2023-02-01T04:46:13;6.60;;;5.68;;
16179;SDS011;8196;49.428;10.906;2023-02-01T04:48:40;7.00;;;6.30;;
16179;SDS011;8196;49.428;10.906;2023-02-01T04:51:08;6.97;;;6.28;;
16179;SDS011;8196;49.428;10.906;2023-02-01T04:53:36;7.30;;;5.82;;
16179;SDS011;8196;49.428;10.906;2023-02-01T04:56:03;6.25;;;5.45;;
16179;SDS011;8196;49.428;10.906;2023-02-01T04:58:30;7.43;;;6.43;;
16179;SDS011;8196;49.428;10.906;2023-02-01T05:00:57;7.30;;;6.00;;
16179;SDS011;8196;49.428;10.906;2023-02-01T05:03:24;6.60;;;5.90;;
16179;SDS011;8196;49.428;10.906;2023-02-01T05:05:52;7.33;;;6.60;;
16179;SDS011;8196;49.428;10.906;2023-02-01T05:08:19;8.20;;;7.40;;
16179;SDS011;8196;49.428;10.906;2023-02-01T05:10:48;7.70;;;6.57;;
16179;SDS011;8196;49.428;10.906;2023-02-01T05:13:15;9.68;;;7.38;;
16179;SDS011;8196;49.428;10.906;2023-02-01T05:16:02;10.05;;;9.07;;
16179;SDS011;8196;49.428;10.906;2023-02-01T05:18:30;9.60;;;7.65;;
16179;SDS011;8196;49.428;10.906;2023-02-01T05:20:57;8.98;;;8.07;;
16179;SDS011;8196;49.428;10.906;2023-02-01T05:23:24;11.30;;;9.45;;
16179;SDS011;8196;49.428;10.906;2023-02-01T05:25:51;10.30;;;8.05;;
16179;SDS011;8196;49.428;10.906;2023-02-01T05:28:18;10.13;;;8.60;;
16179;SDS011;8196;49.428;10.906;2023-02-01T05:30:45;11.65;;;9.57;;
16179;SDS011;8196;49.428;10.906;2023-02-01T05:33:16;9.55;;;7.80;;
16179;SDS011;8196;49.428;10.906;2023-02-01T05:35:43;10.75;;;8.02;;
16179;SDS011;8196;49.428;10.906;2023-02-01T05:38:10;13.60;;;9.90;;
16179;SDS011;8196;49.428;10.906;2023-02-01T05:40:37;12.73;;;10.15;;
16179;SDS011;8196;49.428;10.906;2023-02-01T05:43:04;10.63;;;8.80;;
16179;SDS011;8196;49.428;10.906;2023-02-01T05:45:32;10.23;;;8.88;;
16179;SDS011;8196;49.428;10.906;2023-02-01T05:47:59;12.55;;;9.77;;
16179;SDS011;8196;49.428;10.906;2023-02-01T05:50:26;10.18;;;8.88;;
16179;SDS011;8196;49.428;10.906;2023-02-01T05:52:53;9.32;;;8.18;;
16179;SDS011;8196;49.428;10.906;2023-02-01T05:55:20;9.57;;;8.40;;
16179;SDS011;8196;49.428;10.906;2023-02-01T05:57:47;9.55;;;8.10;;
16179;SDS011;8196;49.428;10.906;2023-02-01T06:00:14;7.60;;;6.80;;
16179;SDS011;8196;49.428;10.906;2023-02-01T06:02:42;8.20;;;7.10;;
16179;SDS011;8196;49.428;10.906;2023-02-01T06:05:09;9.75;;;8.05;;
16179;SDS011;8196;49.428;10.906;2023-02-01T06:07:37;9.57;;;7.05;;
16179;SDS011;8196;49.428;10.906;2023-02-01T06:10:04;6.95;;;5.72;;
16179;SDS011;8196;49.428;10.906;2023-02-01T06:12:31;7.22;;;6.30;;
16179;SDS011;8196;49.428;10.906;2023-02-01T06:14:58;6.90;;;5.65;;
16179;SDS011;8196;49.428;10.906;2023-02-01T06:17:25;4.80;;;4.30;;
16179;SDS011;8196;49.428;10.906;2023-02-01T06:19:52;4.43;;;4.03;;
16179;SDS011;8196;49.428;10.906;2023-02-01T06:22:20;8.70;;;4.05;;
16179;SDS011;8196;49.428;10.906;2023-02-01T06:24:48;6.40;;;4.10;;
16179;SDS011;8196;49.428;10.906;2023-02-01T06:27:15;3.80;;;3.40;;
16179;SDS011;8196;49.428;10.906;2023-02-01T06:29:42;4.40;;;4.00;;
16179;SDS011;8196;49.428;10.906;2023-02-01T06:32:10;3.88;;;3.35;;
16179;SDS011;8196;49.428;10.906;2023-02-01T06:34:37;4.85;;;3.58;;
16179;SDS011;8196;49.428;10.906;2023-02-01T06:37:05;4.43;;;4.03;;
16179;SDS011;8196;49.428;10.906;2023-02-01T06:39:32;4.37;;;3.97;;
16179;SDS011;8196;49.428;10.906;2023-02-01T06:42:00;5.07;;;4.10;;
16179;SDS011;8196;49.428;10.906;2023-02-01T06:44:27;4.38;;;3.92;;
16179;SDS011;8196;49.428;10.906;2023-02-01T06:46:54;5.38;;;3.55;;
16179;SDS011;8196;49.428;10.906;2023-02-01T06:49:21;3.50;;;3.20;;
16179;SDS011;8196;49.428;10.906;2023-02-01T06:51:48;4.00;;;3.55;;
16179;SDS011;8196;49.428;10.906;2023-02-01T06:54:16;4.38;;;3.70;;
16179;SDS011;8196;49.428;10.906;2023-02-01T06:56:43;3.67;;;3.28;;
16179;SDS011;8196;49.428;10.906;2023-02-01T06:59:10;4.75;;;3.35;;
16179;SDS011;8196;49.428;10.906;2023-02-01T07:01:38;3.57;;;3.27;;
16179;SDS011;8196;49.428;10.906;2023-02-01T07:04:05;4.70;;;3.83;;
16179;SDS011;8196;49.428;10.906;2023-02-01T07:06:32;3.40;;;3.10;;
16179;SDS011;8196;49.428;10.906;2023-02-01T07:11:26;5.65;;;4.50;;
16179;SDS011;8196;49.428;10.906;2023-02-01T07:13:54;5.45;;;4.45;;
16179;SDS011;8196;49.428;10.906;2023-02-01T07:16:21;3.60;;;3.30;;
16179;SDS011;8196;49.428;10.906;2023-02-01T07:18:49;5.03;;;4.45;;
16179;SDS011;8196;49.428;10.906;2023-02-01T07:21:17;5.03;;;4.60;;
16179;SDS011;8196;49.428;10.906;2023-02-01T07:23:44;5.43;;;4.40;;
16179;SDS011;8196;49.428;10.906;2023-02-01T07:26:12;5.77;;;4.83;;
16179;SDS011;8196;49.428;10.906;2023-02-01T07:28:39;6.17;;;5.47;;
16179;SDS011;8196;49.428;10.906;2023-02-01T07:31:09;5.28;;;4.78;;
16179;SDS011;8196;49.428;10.906;2023-02-01T07:33:36;7.65;;;5.50;;
16179;SDS011;8196;49.428;10.906;2023-02-01T07:36:04;9.02;;;6.40;;
16179;SDS011;8196;49.428;10.906;2023-02-01T07:38:32;5.77;;;4.93;;
16179;SDS011;8196;49.428;10.906;2023-02-01T07:41:00;7.55;;;4.90;;
16179;SDS011;8196;49.428;10.906;2023-02-01T07:43:28;7.97;;;6.15;;
16179;SDS011;8196;49.428;10.906;2023-02-01T07:45:55;7.93;;;5.90;;
16179;SDS011;8196;49.428;10.906;2023-02-01T07:48:23;5.10;;;4.40;;
16179;SDS011;8196;49.428;10.906;2023-02-01T07:51:08;6.65;;;4.43;;
16179;SDS011;8196;49.428;10.906;2023-02-01T07:53:36;7.80;;;5.20;;
16179;SDS011;8196;49.428;10.906;2023-02-01T07:56:03;6.37;;;4.90;;
16179;SDS011;8196;49.428;10.906;2023-02-01T07:58:31;8.13;;;3.83;;
16179;SDS011;8196;49.428;10.906;2023-02-01T08:00:58;6.60;;;4.70;;
16179;SDS011;8196;49.428;10.906;2023-02-01T08:03:46;6.20;;;5.07;;
16179;SDS011;8196;49.428;10.906;2023-02-01T08:06:13;5.43;;;4.05;;
16179;SDS011;8196;49.428;10.906;2023-02-01T08:08:41;6.82;;;4.80;;
16179;SDS011;8196;49.428;10.906;2023-02-01T08:11:11;6.57;;;4.70;;
16179;SDS011;8196;49.428;10.906;2023-02-01T08:13:38;6.18;;;4.53;;
16179;SDS011;8196;49.428;10.906;2023-02-01T08:16:06;5.75;;;3.97;;
16179;SDS011;8196;49.428;10.906;2023-02-01T08:18:35;4.72;;;3.50;;
16179;SDS011;8196;49.428;10.906;2023-02-01T08:21:04;4.13;;;3.72;;
16179;SDS011;8196;49.428;10.906;2023-02-01T08:23:32;6.70;;;4.20;;
16179;SDS011;8196;49.428;10.906;2023-02-01T08:28:34;6.80;;;3.97;;
16179;SDS011;8196;49.428;10.906;2023-02-01T08:31:03;5.60;;;4.20;;
16179;SDS011;8196;49.428;10.906;2023-02-01T08:33:31;5.85;;;3.60;;
16179;SDS011;8196;49.428;10.906;2023-02-01T08:36:00;6.03;;;3.75;;
16179;SDS011;8196;49.428;10.906;2023-02-01T08:38:27;6.22;;;3.70;;
16179;SDS011;8196;49.428;10.906;2023-02-01T08:40:54;5.05;;;3.60;;
16179;SDS011;8196;49.428;10.906;2023-02-01T08:43:21;5.40;;;3.80;;
16179;SDS011;8196;49.428;10.906;2023-02-01T08:45:49;6.45;;;4.07;;
16179;SDS011;8196;49.428;10.906;2023-02-01T08:48:16;6.63;;;4.30;;
16179;SDS011;8196;49.428;10.906;2023-02-01T08:50:43;5.85;;;4.20;;
16179;SDS011;8196;49.428;10.906;2023-02-01T08:53:11;5.85;;;4.28;;
16179;SDS011;8196;49.428;10.906;2023-02-01T08:55:40;6.97;;;4.50;;
16179;SDS011;8196;49.428;10.906;2023-02-01T08:58:07;8.65;;;4.65;;
16179;SDS011;8196;49.428;10.906;2023-02-01T09:00:34;8.20;;;4.90;;
16179;SDS011;8196;49.428;10.906;2023-02-01T09:03:01;7.07;;;5.28;;
16179;SDS011;8196;49.428;10.906;2023-02-01T09:05:28;7.85;;;5.13;;
16179;SDS011;8196;49.428;10.906;2023-02-01T09:08:13;7.00;;;5.38;;
16179;SDS011;8196;49.428;10.906;2023-02-01T09:10:41;8.10;;;4.97;;
16179;SDS011;8196;49.428;10.906;2023-02-01T09:13:08;7.78;;;5.15;;
16179;SDS011;8196;49.428;10.906;2023-02-01T09:15:37;7.77;;;5.30;;
16179;SDS011;8196;49.428;10.906;2023-02-01T09:18:04;6.18;;;4.30;;
16179;SDS011;8196;49.428;10.906;2023-02-01T09:20:31;6.78;;;4.97;;
16179;SDS011;8196;49.428;10.906;2023-02-01T09:22:58;7.65;;;5.57;;
16179;SDS011;8196;49.428;10.906;2023-02-01T09:25:26;7.75;;;4.55;;
16179;SDS011;8196;49.428;10.906;2023-02-01T09:27:53;5.40;;;2.95;;
16179;SDS011;8196;49.428;10.906;2023-02-01T09:30:20;3.80;;;1.73;;
16179;SDS011;8196;49.428;10.906;2023-02-01T09:32:48;0.10;;;0.10;;
16179;SDS011;8196;49.428;10.906;2023-02-01T09:35:15;0.10;;;0.10;;
16179;SDS011;8196;49.428;10.906;2023-02-01T09:37:42;0.20;;;0.20;;
16179;SDS011;8196;49.428;10.906;2023-02-01T09:40:12;0.10;;;0.10;;
16179;SDS011;8196;49.428;10.906;2023-02-01T09:47:48;0.30;;;0.20;;
16179;SDS011;8196;49.428;10.906;2023-02-01T09:50:18;0.05;;;0.05;;
16179;SDS011;8196;49.428;10.906;2023-02-01T09:55:18;0.82;;;0.82;;
16179;SDS011;8196;49.428;10.906;2023-02-01T09:57:51;0.30;;;0.30;;
16179;SDS011;8196;49.428;10.906;2023-02-01T10:00:23;1.02;;;0.63;;
16179;SDS011;8196;49.428;10.906;2023-02-01T10:02:53;1.40;;;1.15;;
16179;SDS011;8196;49.428;10.906;2023-02-01T10:05:27;8.30;;;4.07;;
16179;SDS011;8196;49.428;10.906;2023-02-01T10:08:04;6.93;;;3.90;;
16179;SDS011;8196;49.428;10.906;2023-02-01T10:10:39;11.45;;;4.72;;
16179;SDS011;8196;49.428;10.906;2023-02-01T10:13:09;8.25;;;4.43;;
16179;SDS011;8196;49.428;10.906;2023-02-01T10:18:27;10.57;;;5.07;;
16179;SDS011;8196;49.428;10.906;2023-02-01T10:20:57;9.75;;;4.55;;
16179;SDS011;8196;49.428;10.906;2023-02-01T10:23:34;10.73;;;5.07;;
16179;SDS011;8196;49.428;10.906;2023-02-01T10:26:06;10.02;;;4.68;;
16179;SDS011;8196;49.428;10.906;2023-02-01T10:28:35;12.95;;;4.97;;
16179;SDS011;8196;49.428;10.906;2023-02-01T10:31:03;10.50;;;5.28;;
16179;SDS011;8196;49.428;10.906;2023-02-01T10:33:34;11.75;;;5.05;;
16179;SDS011;8196;49.428;10.906;2023-02-01T10:36:04;11.48;;;5.35;;
16179;SDS011;8196;49.428;10.906;2023-02-01T10:38:36;13.25;;;5.68;;
16179;SDS011;8196;49.428;10.906;2023-02-01T10:41:08;12.20;;;4.90;;
16179;SDS011;8196;49.428;10.906;2023-02-01T10:43:38;12.13;;;4.95;;
16179;SDS011;8196;49.428;10.906;2023-02-01T10:46:06;11.80;;;5.20;;
16179;SDS011;8196;49.428;10.906;2023-02-01T10:48:33;11.93;;;4.53;;
16179;SDS011;8196;49.428;10.906;2023-02-01T10:51:02;12.83;;;4.40;;
16179;SDS011;8196;49.428;10.906;2023-02-01T10:53:50;8.80;;;4.30;;
16179;SDS011;8196;49.428;10.906;2023-02-01T10:56:21;10.20;;;4.70;;
16179;SDS011;8196;49.428;10.906;2023-02-01T10:58:49;10.23;;;3.97;;
16179;SDS011;8196;49.428;10.906;2023-02-01T11:01:19;10.85;;;4.25;;
16179;SDS011;8196;49.428;10.906;2023-02-01T11:03:55;13.18;;;4.25;;
16179;SDS011;8196;49.428;10.906;2023-02-01T11:08:51;6.43;;;3.20;;
16179;SDS011;8196;49.428;10.906;2023-02-01T11:11:18;9.27;;;4.00;;
16179;SDS011;8196;49.428;10.906;2023-02-01T11:13:51;7.57;;;3.60;;
16179;SDS011;8196;49.428;10.906;2023-02-01T11:16:19;8.40;;;3.97;;
16179;SDS011;8196;49.428;10.906;2023-02-01T11:18:46;10.35;;;4.10;;
16179;SDS011;8196;49.428;10.906;2023-02-01T11:21:19;9.20;;;3.40;;
16179;SDS011;8196;49.428;10.906;2023-02-01T11:23:47;8.20;;;3.53;;
16179;SDS011;8196;49.428;10.906;2023-02-01T11:26:19;7.95;;;3.38;;
16179;SDS011;8196;49.428;10.906;2023-02-01T11:28:52;10.07;;;3.80;;
16179;SDS011;8196;49.428;10.906;2023-02-01T11:31:20;10.57;;;3.90;;
16179;SDS011;8196;49.428;10.906;2023-02-01T11:33:49;9.38;;;3.97;;
16179;SDS011;8196;49.428;10.906;2023-02-01T11:36:17;10.35;;;3.80;;
16179;SDS011;8196;49.428;10.906;2023-02-01T11:38:47;11.25;;;3.80;;
16179;SDS011;8196;49.428;10.906;2023-02-01T11:41:26;8.73;;;3.63;;
16179;SDS011;8196;49.428;10.906;2023-02-01T11:43:57;9.98;;;4.60;;
16179;SDS011;8196;49.428;10.906;2023-02-01T11:46:34;11.02;;;5.45;;
16179;SDS011;8196;49.428;10.906;2023-02-01T11:49:13;14.30;;;6.10;;
16179;SDS011;8196;49.428;10.906;2023-02-01T11:51:48;10.43;;;4.30;;
16179;SDS011;8196;49.428;10.906;2023-02-01T11:54:23;11.82;;;4.70;;
16179;SDS011;8196;49.428;10.906;2023-02-01T11:59:27;11.65;;;4.72;;
16179;SDS011;8196;49.428;10.906;2023-02-01T12:02:02;8.23;;;4.05;;
16179;SDS011;8196;49.428;10.906;2023-02-01T12:04:40;7.93;;;3.83;;
16179;SDS011;8196;49.428;10.906;2023-02-01T12:07:13;10.80;;;3.97;;
16179;SDS011;8196;49.428;10.906;2023-02-01T12:10:00;8.65;;;3.88;;
16179;SDS011;8196;49.428;10.906;2023-02-01T12:12:36;8.95;;;3.92;;
16179;SDS011;8196;49.428;10.906;2023-02-01T12:17:41;9.95;;;3.83;;
16179;SDS011;8196;49.428;10.906;2023-02-01T12:33:35;9.25;;;3.90;;
16179;SDS011;8196;49.428;10.906;2023-02-01T12:38:44;7.78;;;3.83;;
16179;SDS011;8196;49.428;10.906;2023-02-01T12:41:17;12.65;;;4.10;;
16179;SDS011;8196;49.428;10.906;2023-02-01T12:46:16;8.18;;;3.80;;
16179;SDS011;8196;49.428;10.906;2023-02-01T12:48:49;8.60;;;3.72;;
16179;SDS011;8196;49.428;10.906;2023-02-01T12:51:21;8.40;;;3.88;;
16179;SDS011;8196;49.428;10.906;2023-02-01T12:53:51;10.47;;;4.20;;
16179;SDS011;8196;49.428;10.906;2023-02-01T12:56:38;11.13;;;4.28;;
16179;SDS011;8196;49.428;10.906;2023-02-01T12:59:27;10.00;;;4.07;;
16179;SDS011;8196;49.428;10.906;2023-02-01T13:01:55;9.25;;;4.75;;
16179;SDS011;8196;49.428;10.906;2023-02-01T13:04:26;10.77;;;4.70;;
16179;SDS011;8196;49.428;10.906;2023-02-01T13:09:47;13.30;;;5.03;;
16179;SDS011;8196;49.428;10.906;2023-02-01T13:12:17;12.90;;;5.03;;
16179;SDS011;8196;49.428;10.906;2023-02-01T13:17:16;9.40;;;3.57;;
16179;SDS011;8196;49.428;10.906;2023-02-01T13:19:53;10.43;;;3.80;;
16179;SDS011;8196;49.428;10.906;2023-02-01T13:22:27;10.98;;;3.92;;
16179;SDS011;8196;49.428;10.906;2023-02-01T13:24:56;7.97;;;3.25;;
16179;SDS011;8196;49.428;10.906;2023-02-01T13:27:26;6.57;;;2.60;;
16179;SDS011;8196;49.428;10.906;2023-02-01T13:29:55;5.70;;;2.65;;
16179;SDS011;8196;49.428;10.906;2023-02-01T13:37:46;7.80;;;3.10;;
16179;SDS011;8196;49.428;10.906;2023-02-01T13:40:23;8.57;;;3.17;;
16179;SDS011;8196;49.428;10.906;2023-02-01T13:42:58;10.65;;;3.50;;
16179;SDS011;8196;49.428;10.906;2023-02-01T13:45:27;8.73;;;3.40;;
16179;SDS011;8196;49.428;10.906;2023-02-01T13:47:57;8.05;;;3.22;;
16179;SDS011;8196;49.428;10.906;2023-02-01T13:52:55;9.25;;;3.50;;
16179;SDS011;8196;49.428;10.906;2023-02-01T13:57:52;8.10;;;3.33;;
16179;SDS011;8196;49.428;10.906;2023-02-01T14:00:30;6.75;;;3.38;;
16179;SDS011;8196;49.428;10.906;2023-02-01T14:08:09;8.43;;;3.15;;
16179;SDS011;8196;49.428;10.906;2023-02-01T14:10:55;6.10;;;2.90;;
16179;SDS011;8196;49.428;10.906;2023-02-01T14:16:10;12.05;;;3.67;;
16179;SDS011;8196;49.428;10.906;2023-02-01T14:31:52;7.30;;;2.97;;
16179;SDS011;8196;49.428;10.906;2023-02-01T14:36:52;7.75;;;2.58;;
16179;SDS011;8196;49.428;10.906;2023-02-01T14:39:25;6.93;;;2.97;;
16179;SDS011;8196;49.428;10.906;2023-02-01T14:41:54;7.30;;;2.77;;
16179;SDS011;8196;49.428;10.906;2023-02-01T14:44:29;7.28;;;3.10;;
16179;SDS011;8196;49.428;10.906;2023-02-01T14:52:33;8.10;;;3.10;;
16179;SDS011;8196;49.428;10.906;2023-02-01T14:55:03;10.43;;;4.00;;
16179;SDS011;8196;49.428;10.906;2023-02-01T14:57:32;9.68;;;3.85;;
16179;SDS011;8196;49.428;10.906;2023-02-01T15:00:05;11.85;;;4.53;;
16179;SDS011;8196;49.428;10.906;2023-02-01T15:02:34;8.05;;;3.35;;
16179;SDS011;8196;49.428;10.906;2023-02-01T15:05:12;9.98;;;3.60;;
16179;SDS011;8196;49.428;10.906;2023-02-01T15:07:43;8.02;;;3.88;;
16179;SDS011;8196;49.428;10.906;2023-02-01T15:10:10;10.40;;;4.05;;
16179;SDS011;8196;49.428;10.906;2023-02-01T15:12:40;17.13;;;10.23;;
16179;SDS011;8196;49.428;10.906;2023-02-01T15:17:37;8.15;;;3.55;;
16179;SDS011;8196;49.428;10.906;2023-02-01T15:25:21;13.98;;;5.68;;
16179;SDS011;8196;49.428;10.906;2023-02-01T15:27:49;14.65;;;5.80;;
16179;SDS011;8196;49.428;10.906;2023-02-01T15:30:18;11.37;;;4.40;;
16179;SDS011;8196;49.428;10.906;2023-02-01T15:32:45;11.38;;;4.90;;
16179;SDS011;8196;49.428;10.906;2023-02-01T15:41:06;8.63;;;3.08;;
16179;SDS011;8196;49.428;10.906;2023-02-01T15:43:39;8.40;;;3.28;;
16179;SDS011;8196;49.428;10.906;2023-02-01T15:46:08;6.00;;;2.78;;
16179;SDS011;8196;49.428;10.906;2023-02-01T15:48:37;9.75;;;2.63;;
16179;SDS011;8196;49.428;10.906;2023-02-01T15:51:06;6.80;;;2.75;;
16179;SDS011;8196;49.428;10.906;2023-02-01T15:53:38;7.13;;;3.00;;
16179;SDS011;8196;49.428;10.906;2023-02-01T15:56:11;6.68;;;2.50;;
16179;SDS011;8196;49.428;10.906;2023-02-01T15:58:40;9.68;;;3.25;;
16179;SDS011;8196;49.428;10.906;2023-02-01T16:01:10;7.80;;;2.72;;
16179;SDS011;8196;49.428;10.906;2023-02-01T16:03:40;7.88;;;2.63;;
16179;SDS011;8196;49.428;10.906;2023-02-01T16:06:09;9.38;;;3.10;;
16179;SDS011;8196;49.428;10.906;2023-02-01T16:08:37;9.45;;;2.70;;
16179;SDS011;8196;49.428;10.906;2023-02-01T16:13:35;7.03;;;2.92;;
16179;SDS011;8196;49.428;10.906;2023-02-01T16:16:02;9.07;;;3.42;;
16179;SDS011;8196;49.428;10.906;2023-02-01T16:18:34;7.00;;;2.83;;
16179;SDS011;8196;49.428;10.906;2023-02-01T16:21:01;6.13;;;2.25;;
16179;SDS011;8196;49.428;10.906;2023-02-01T16:23:28;8.52;;;2.50;;
16179;SDS011;8196;49.428;10.906;2023-02-01T16:25:57;7.15;;;2.42;;
16179;SDS011;8196;49.428;10.906;2023-02-01T16:28:24;8.02;;;2.80;;
16179;SDS011;8196;49.428;10.906;2023-02-01T16:30:52;8.45;;;2.42;;
16179;SDS011;8196;49.428;10.906;2023-02-01T16:33:19;7.20;;;2.50;;
16179;SDS011;8196;49.428;10.906;2023-02-01T16:35:48;8.13;;;2.88;;
16179;SDS011;8196;49.428;10.906;2023-02-01T16:38:16;6.77;;;2.97;;
16179;SDS011;8196;49.428;10.906;2023-02-01T16:40:45;8.10;;;3.10;;
16179;SDS011;8196;49.428;10.906;2023-02-01T16:43:14;8.98;;;2.28;;
16179;SDS011;8196;49.428;10.906;2023-02-01T16:45:42;10.25;;;2.83;;
16179;SDS011;8196;49.428;10.906;2023-02-01T16:48:17;7.60;;;2.88;;
16179;SDS011;8196;49.428;10.906;2023-02-01T16:50:46;8.60;;;3.08;;
16179;SDS011;8196;49.428;10.906;2023-02-01T16:53:14;10.23;;;3.00;;
16179;SDS011;8196;49.428;10.906;2023-02-01T16:55:43;9.33;;;2.90;;
16179;SDS011;8196;49.428;10.906;2023-02-01T16:58:10;8.02;;;2.40;;
16179;SDS011;8196;49.428;10.906;2023-02-01T17:00:37;10.38;;;2.90;;
16179;SDS011;8196;49.428;10.906;2023-02-01T17:03:04;7.47;;;3.00;;
16179;SDS011;8196;49.428;10.906;2023-02-01T17:05:32;9.25;;;2.90;;